Time;durP1;ratioP1;P1;durP2;ratioP2;P2;SDS_P1;SDS_P2;PMS_P1;PMS_P2;Temp;Humidity;BMP_temperature;BMP_pressure;BME280_temperature;BME280_humidity;BME280_pressure;Samples;Min_cycle;Max_cycle;Signal;HPM_P1;HPM_P2
2021/12/30 00:01:25;;;;;;;55.03;9.93;;;;;;;;;;5038873;28;20040;-66
2021/12/30 00:03:52;;;;;;;48.40;8.93;;;;;;;;;;5039540;28;20430;-66
2021/12/30 00:06:22;;;;;;;48.50;8.70;;;;;;;;;;5042028;28;20045;-66
2021/12/30 00:08:48;;;;;;;50.80;10.10;;;;;;;;;;5041911;28;20041;-66
2021/12/30 00:11:14;;;;;;;53.93;10.20;;;;;;;;;;5043996;28;20041;-66
2021/12/30 00:13:44;;;;;;;50.00;11.77;;;;;;;;;;5040073;28;20411;-66
2021/12/30 00:16:11;;;;;;;52.03;9.10;;;;;;;;;;5044579;28;20068;-66
2021/12/30 00:18:37;;;;;;;59.30;9.97;;;;;;;;;;5039424;28;20045;-67
2021/12/30 00:21:03;;;;;;;57.50;10.20;;;;;;;;;;5039878;28;20056;-66
2021/12/30 00:23:29;;;;;;;51.93;8.70;;;;;;;;;;5039867;28;20128;-66
2021/12/30 00:25:55;;;;;;;54.70;9.77;;;;;;;;;;5039419;28;20045;-66
2021/12/30 00:28:22;;;;;;;45.53;10.03;;;;;;;;;;5039788;28;20118;-66
2021/12/30 00:30:49;;;;;;;49.57;8.60;;;;;;;;;;5043824;28;20033;-66
2021/12/30 00:33:16;;;;;;;57.50;10.27;;;;;;;;;;5017733;28;20041;-66
2021/12/30 00:35:42;;;;;;;57.77;9.67;;;;;;;;;;5040292;28;20041;-66
2021/12/30 00:38:08;;;;;;;50.93;9.17;;;;;;;;;;5037257;28;20051;-66
2021/12/30 00:40:35;;;;;;;57.33;9.67;;;;;;;;;;5038255;28;20045;-67
2021/12/30 00:43:01;;;;;;;66.10;12.93;;;;;;;;;;5036910;28;20407;-66
2021/12/30 00:45:28;;;;;;;55.00;8.73;;;;;;;;;;5038149;28;20057;-66
2021/12/30 00:47:54;;;;;;;48.60;10.23;;;;;;;;;;5041535;28;20073;-67
2021/12/30 00:50:20;;;;;;;46.50;8.73;;;;;;;;;;5039733;28;20142;-66
2021/12/30 00:52:47;;;;;;;64.73;9.37;;;;;;;;;;5041629;28;20048;-66
2021/12/30 00:55:13;;;;;;;54.07;8.90;;;;;;;;;;5039103;28;20044;-66
2021/12/30 00:57:41;;;;;;;57.20;10.17;;;;;;;;;;5044096;28;20044;-67
2021/12/30 01:00:09;;;;;;;58.40;11.03;;;;;;;;;;5037138;28;20052;-66
2021/12/30 01:02:35;;;;;;;55.37;11.07;;;;;;;;;;5039226;28;20044;-66
2021/12/30 01:05:01;;;;;;;46.23;10.73;;;;;;;;;;5036776;28;20114;-66
2021/12/30 01:07:27;;;;;;;63.27;10.70;;;;;;;;;;5039286;28;20400;-66
2021/12/30 01:09:53;;;;;;;71.33;10.60;;;;;;;;;;5040025;28;20037;-66
2021/12/30 01:12:19;;;;;;;57.70;10.73;;;;;;;;;;5038555;28;20372;-66
2021/12/30 01:14:47;;;;;;;60.57;10.90;;;;;;;;;;5038770;28;20052;-67
2021/12/30 01:17:23;;;;;;;57.03;10.87;;;;;;;;;;5036716;28;20058;-66
2021/12/30 01:19:51;;;;;;;66.17;12.87;;;;;;;;;;5035004;28;20120;-66
2021/12/30 01:22:19;;;;;;;56.83;13.33;;;;;;;;;;5042514;28;20499;-66
2021/12/30 01:24:45;;;;;;;74.00;12.00;;;;;;;;;;5039674;28;20128;-66
2021/12/30 01:27:11;;;;;;;59.60;9.87;;;;;;;;;;5035176;28;20045;-67
2021/12/30 01:29:38;;;;;;;71.40;11.23;;;;;;;;;;5043379;28;20041;-66
2021/12/30 01:32:04;;;;;;;58.40;11.27;;;;;;;;;;5040205;28;20079;-66
2021/12/30 01:34:31;;;;;;;56.27;12.10;;;;;;;;;;5031010;28;20048;-66
2021/12/30 01:37:01;;;;;;;62.13;11.23;;;;;;;;;;5028916;28;20144;-66
2021/12/30 01:39:27;;;;;;;52.93;11.33;;;;;;;;;;5030821;28;20408;-66
2021/12/30 01:41:54;;;;;;;67.33;12.57;;;;;;;;;;5031094;28;20092;-67
2021/12/30 01:44:20;;;;;;;55.10;13.43;;;;;;;;;;5031054;28;20633;-66
2021/12/30 01:46:47;;;;;;;62.30;11.93;;;;;;;;;;5030477;28;20139;-67
2021/12/30 01:49:14;;;;;;;65.40;13.63;;;;;;;;;;5030990;28;20080;-67
2021/12/30 01:51:41;;;;;;;64.63;13.83;;;;;;;;;;5028939;28;20065;-66
2021/12/30 01:54:08;;;;;;;67.20;14.20;;;;;;;;;;5029287;28;20111;-66
2021/12/30 01:56:34;;;;;;;70.37;16.80;;;;;;;;;;5030575;28;20478;-66
2021/12/30 01:59:00;;;;;;;68.63;15.00;;;;;;;;;;5030172;28;20057;-66
2021/12/30 02:01:26;;;;;;;59.50;16.07;;;;;;;;;;5030631;28;20069;-67
2021/12/30 02:03:52;;;;;;;70.00;16.33;;;;;;;;;;5012313;28;20048;-66
2021/12/30 02:06:19;;;;;;;76.00;16.33;;;;;;;;;;5030192;28;20041;-66
2021/12/30 02:08:45;;;;;;;73.77;19.57;;;;;;;;;;5028449;28;20591;-67
2021/12/30 02:11:11;;;;;;;71.57;18.33;;;;;;;;;;5030406;28;20128;-66
2021/12/30 02:13:37;;;;;;;73.80;20.30;;;;;;;;;;5029155;28;20136;-66
2021/12/30 02:16:03;;;;;;;76.70;21.37;;;;;;;;;;5029722;28;20454;-66
2021/12/30 02:18:29;;;;;;;82.27;21.27;;;;;;;;;;5028311;28;20517;-66
2021/12/30 02:21:03;;;;;;;86.60;23.17;;;;;;;;;;5030020;28;20053;-66
2021/12/30 02:23:30;;;;;;;84.50;22.48;;;;;;;;;;5030382;28;20041;-66
2021/12/30 02:25:58;;;;;;;76.77;22.00;;;;;;;;;;5029817;28;20049;-66
2021/12/30 02:28:25;;;;;;;94.60;23.63;;;;;;;;;;5012218;28;20132;-66
2021/12/30 02:30:52;;;;;;;63.10;20.53;;;;;;;;;;5028128;28;20077;-66
2021/12/30 02:33:18;;;;;;;90.53;23.77;;;;;;;;;;5030092;28;20041;-67
2021/12/30 02:35:44;;;;;;;82.00;22.73;;;;;;;;;;5028691;28;20108;-66
2021/12/30 02:38:11;;;;;;;86.37;24.60;;;;;;;;;;5028823;28;20512;-66
2021/12/30 02:40:40;;;;;;;78.13;24.63;;;;;;;;;;5028778;28;20400;-66
2021/12/30 02:43:07;;;;;;;97.00;26.67;;;;;;;;;;5028578;28;20132;-66
2021/12/30 02:45:33;;;;;;;93.83;26.93;;;;;;;;;;5029093;28;20080;-67
2021/12/30 02:47:59;;;;;;;82.60;25.00;;;;;;;;;;5028331;28;20575;-66
2021/12/30 02:50:25;;;;;;;90.07;27.50;;;;;;;;;;5028403;28;20069;-67
2021/12/30 02:52:51;;;;;;;84.60;25.77;;;;;;;;;;5027627;28;20056;-66
2021/12/30 02:55:17;;;;;;;78.27;23.63;;;;;;;;;;5028228;28;20084;-66
2021/12/30 02:57:43;;;;;;;73.83;24.07;;;;;;;;;;5029067;28;20048;-67
2021/12/30 03:00:10;;;;;;;83.70;25.10;;;;;;;;;;5028603;28;20107;-67
2021/12/30 03:02:39;;;;;;;84.20;22.33;;;;;;;;;;5029451;28;20046;-66
2021/12/30 03:05:07;;;;;;;94.97;26.23;;;;;;;;;;5029348;28;20545;-66
2021/12/30 03:07:33;;;;;;;90.33;23.37;;;;;;;;;;5028769;28;20054;-66
2021/12/30 03:09:59;;;;;;;97.60;25.33;;;;;;;;;;5029224;28;20053;-66
2021/12/30 03:12:25;;;;;;;76.33;23.80;;;;;;;;;;5029403;28;20119;-67
2021/12/30 03:14:51;;;;;;;86.40;23.27;;;;;;;;;;5029185;28;20407;-67
2021/12/30 03:17:17;;;;;;;80.80;23.53;;;;;;;;;;5027456;28;20080;-66
2021/12/30 03:19:44;;;;;;;81.03;22.57;;;;;;;;;;5011169;28;20484;-66
2021/12/30 03:22:10;;;;;;;80.27;23.87;;;;;;;;;;5029014;28;20395;-66
2021/12/30 03:24:36;;;;;;;84.20;24.00;;;;;;;;;;5028300;28;20419;-67
2021/12/30 03:27:05;;;;;;;75.77;23.53;;;;;;;;;;5028838;28;20053;-66
2021/12/30 03:29:31;;;;;;;71.97;23.63;;;;;;;;;;5027742;28;20096;-66
2021/12/30 03:31:57;;;;;;;88.67;23.77;;;;;;;;;;5028451;28;20041;-66
2021/12/30 03:34:24;;;;;;;91.10;23.97;;;;;;;;;;5029117;28;20128;-66
2021/12/30 03:36:50;;;;;;;76.93;24.43;;;;;;;;;;5027647;28;20061;-67
2021/12/30 03:39:16;;;;;;;77.03;22.60;;;;;;;;;;5031142;28;20049;-66
2021/12/30 03:41:42;;;;;;;80.77;24.60;;;;;;;;;;5031385;28;20052;-66
2021/12/30 03:44:08;;;;;;;91.70;25.93;;;;;;;;;;5032804;28;20475;-66
2021/12/30 03:46:34;;;;;;;79.73;24.13;;;;;;;;;;5031618;28;20135;-67
2021/12/30 03:49:01;;;;;;;81.33;26.47;;;;;;;;;;5031372;28;20406;-67
2021/12/30 03:51:27;;;;;;;77.57;23.13;;;;;;;;;;5033106;28;20046;-66
2021/12/30 03:53:55;;;;;;;83.33;22.23;;;;;;;;;;5031365;28;20052;-67
2021/12/30 03:56:23;;;;;;;75.07;23.10;;;;;;;;;;5031206;28;20136;-67
2021/12/30 03:58:49;;;;;;;81.83;22.73;;;;;;;;;;5031519;28;20042;-66
2021/12/30 04:01:17;;;;;;;82.37;23.33;;;;;;;;;;5030955;28;20041;-67
2021/12/30 04:03:43;;;;;;;97.23;26.13;;;;;;;;;;5032004;28;20042;-67
2021/12/30 04:06:09;;;;;;;79.87;22.00;;;;;;;;;;5032139;28;20136;-67
2021/12/30 04:08:35;;;;;;;89.97;22.47;;;;;;;;;;5032331;28;20053;-67
2021/12/30 04:11:01;;;;;;;85.63;23.07;;;;;;;;;;5030959;28;20049;-67
2021/12/30 04:13:27;;;;;;;79.97;22.57;;;;;;;;;;5032816;28;20045;-66
2021/12/30 04:15:53;;;;;;;91.37;24.17;;;;;;;;;;5032157;28;20061;-66
2021/12/30 04:18:20;;;;;;;100.70;25.97;;;;;;;;;;5014280;28;20068;-66
2021/12/30 04:20:46;;;;;;;104.50;24.20;;;;;;;;;;5032000;28;20136;-66
2021/12/30 04:23:13;;;;;;;101.00;27.90;;;;;;;;;;5032334;28;20128;-66
2021/12/30 04:25:39;;;;;;;90.07;24.93;;;;;;;;;;5031458;28;20113;-66
2021/12/30 04:28:05;;;;;;;93.40;25.07;;;;;;;;;;5032119;28;20050;-67
2021/12/30 04:30:31;;;;;;;98.73;28.70;;;;;;;;;;5032395;28;20041;-66
2021/12/30 04:32:57;;;;;;;83.17;27.77;;;;;;;;;;5030991;28;20128;-66
2021/12/30 04:35:24;;;;;;;86.40;27.13;;;;;;;;;;5031687;28;20049;-67
2021/12/30 04:37:50;;;;;;;91.83;27.97;;;;;;;;;;5031806;28;20084;-66
2021/12/30 04:40:16;;;;;;;98.70;31.40;;;;;;;;;;5031413;28;20081;-66
2021/12/30 04:42:42;;;;;;;97.87;29.10;;;;;;;;;;5031663;28;20052;-66
2021/12/30 04:45:09;;;;;;;95.87;28.57;;;;;;;;;;5031606;28;20053;-66
2021/12/30 04:47:38;;;;;;;93.60;29.37;;;;;;;;;;5031204;28;20467;-66
2021/12/30 04:50:04;;;;;;;71.50;26.43;;;;;;;;;;5031168;28;20054;-67
2021/12/30 04:52:30;;;;;;;114.97;30.57;;;;;;;;;;5031908;28;20045;-66
2021/12/30 04:54:57;;;;;;;84.03;26.97;;;;;;;;;;5031586;28;20042;-67
2021/12/30 04:57:23;;;;;;;71.20;27.37;;;;;;;;;;5031123;28;20106;-66
2021/12/30 04:59:49;;;;;;;87.77;29.07;;;;;;;;;;5031420;28;20125;-66
2021/12/30 05:02:15;;;;;;;84.70;27.20;;;;;;;;;;5030682;28;20665;-67
2021/12/30 05:04:41;;;;;;;86.27;30.77;;;;;;;;;;5037519;28;20119;-66
2021/12/30 05:07:07;;;;;;;67.63;26.03;;;;;;;;;;5049950;28;20079;-67
2021/12/30 05:09:33;;;;;;;93.40;30.13;;;;;;;;;;5036425;28;20061;-66
2021/12/30 05:11:59;;;;;;;71.67;26.87;;;;;;;;;;5019105;28;20406;-67
2021/12/30 05:14:25;;;;;;;79.93;28.33;;;;;;;;;;5046788;28;20060;-66
2021/12/30 05:16:52;;;;;;;69.00;26.73;;;;;;;;;;5029571;28;20529;-67
2021/12/30 05:19:19;;;;;;;79.60;29.07;;;;;;;;;;5030967;28;20049;-66
2021/12/30 05:21:45;;;;;;;73.03;27.67;;;;;;;;;;5030656;28;20048;-66
2021/12/30 05:24:11;;;;;;;83.33;30.00;;;;;;;;;;5030172;28;20499;-66
2021/12/30 05:26:37;;;;;;;104.40;33.27;;;;;;;;;;5030461;28;20132;-66
2021/12/30 05:29:04;;;;;;;93.73;32.63;;;;;;;;;;5029570;28;20192;-66
2021/12/30 05:31:30;;;;;;;94.00;30.63;;;;;;;;;;5030534;28;20045;-67
2021/12/30 05:33:56;;;;;;;93.10;31.43;;;;;;;;;;5029413;28;20045;-67
2021/12/30 05:36:22;;;;;;;89.57;32.37;;;;;;;;;;5030372;28;20053;-66
2021/12/30 05:38:48;;;;;;;112.10;35.03;;;;;;;;;;5029979;28;20045;-66
2021/12/30 05:41:14;;;;;;;112.67;34.60;;;;;;;;;;5030273;28;20516;-66
2021/12/30 05:43:40;;;;;;;104.03;33.07;;;;;;;;;;5028760;28;20045;-66
2021/12/30 05:46:06;;;;;;;109.00;31.83;;;;;;;;;;5029913;28;20053;-66
2021/12/30 05:48:33;;;;;;;107.73;31.13;;;;;;;;;;5028889;28;20140;-66
2021/12/30 05:51:00;;;;;;;103.07;32.33;;;;;;;;;;5028873;28;20041;-66
2021/12/30 05:53:27;;;;;;;105.33;31.30;;;;;;;;;;5030174;28;20125;-66
2021/12/30 05:55:53;;;;;;;99.83;33.70;;;;;;;;;;5030205;28;20095;-67
2021/12/30 05:58:19;;;;;;;108.90;33.30;;;;;;;;;;5028593;28;20050;-66
2021/12/30 06:00:45;;;;;;;109.53;33.67;;;;;;;;;;5027691;28;20060;-66
2021/12/30 06:03:11;;;;;;;101.33;32.90;;;;;;;;;;5028318;28;20045;-66
2021/12/30 06:05:37;;;;;;;106.77;34.77;;;;;;;;;;5029913;28;20107;-66
2021/12/30 06:08:03;;;;;;;103.07;34.67;;;;;;;;;;5028146;28;20058;-66
2021/12/30 06:10:29;;;;;;;137.33;36.87;;;;;;;;;;5030074;28;20507;-66
2021/12/30 06:12:55;;;;;;;104.07;35.40;;;;;;;;;;5029994;28;20056;-66
2021/12/30 06:15:21;;;;;;;89.20;31.03;;;;;;;;;;5028297;28;20140;-66
2021/12/30 06:17:47;;;;;;;102.97;32.23;;;;;;;;;;5027752;28;20049;-66
2021/12/30 06:20:14;;;;;;;114.43;33.03;;;;;;;;;;5028489;28;20042;-66
2021/12/30 06:22:44;;;;;;;84.63;28.90;;;;;;;;;;5029520;28;20464;-66
2021/12/30 06:25:11;;;;;;;93.93;29.73;;;;;;;;;;5029570;28;20049;-66
2021/12/30 06:27:37;;;;;;;98.33;30.73;;;;;;;;;;5029383;28;20045;-66
2021/12/30 06:30:04;;;;;;;77.57;28.73;;;;;;;;;;5028820;28;20045;-66
2021/12/30 06:32:30;;;;;;;89.90;29.03;;;;;;;;;;5029523;28;20037;-66
2021/12/30 06:34:56;;;;;;;66.63;26.30;;;;;;;;;;5029253;28;20171;-66
2021/12/30 06:37:22;;;;;;;69.20;27.20;;;;;;;;;;5027503;28;20053;-66
2021/12/30 06:39:48;;;;;;;64.00;25.23;;;;;;;;;;5028594;28;20041;-66
2021/12/30 06:42:14;;;;;;;57.90;25.30;;;;;;;;;;5029489;28;20044;-66
2021/12/30 06:44:40;;;;;;;65.00;24.50;;;;;;;;;;5029200;28;20045;-66
2021/12/30 06:47:07;;;;;;;69.70;25.77;;;;;;;;;;5027851;28;20048;-67
2021/12/30 06:49:37;;;;;;;58.97;22.53;;;;;;;;;;5027293;28;20083;-66
2021/12/30 06:52:07;;;;;;;51.07;20.53;;;;;;;;;;5027047;28;20528;-67
2021/12/30 06:54:33;;;;;;;58.93;20.97;;;;;;;;;;5027967;28;20980;-66
2021/12/30 06:57:00;;;;;;;58.33;20.47;;;;;;;;;;5028412;28;20049;-66
2021/12/30 06:59:27;;;;;;;41.83;17.27;;;;;;;;;;5029056;28;20096;-66
2021/12/30 07:01:56;;;;;;;38.00;16.10;;;;;;;;;;5029068;28;20045;-66
2021/12/30 07:04:22;;;;;;;39.37;16.10;;;;;;;;;;5027165;28;20053;-67
2021/12/30 07:06:48;;;;;;;28.73;12.87;;;;;;;;;;5027439;28;20052;-66
2021/12/30 07:09:14;;;;;;;24.87;11.37;;;;;;;;;;5027745;28;20041;-67
2021/12/30 07:11:40;;;;;;;35.67;13.27;;;;;;;;;;5028843;28;20064;-66
2021/12/30 07:14:06;;;;;;;42.60;11.87;;;;;;;;;;5030518;28;20049;-66
2021/12/30 07:16:32;;;;;;;25.17;10.97;;;;;;;;;;5031922;28;20144;-66
2021/12/30 07:18:58;;;;;;;28.90;9.80;;;;;;;;;;5028142;28;20061;-66
2021/12/30 07:21:24;;;;;;;25.30;10.33;;;;;;;;;;5028579;28;20504;-67
2021/12/30 07:23:50;;;;;;;22.57;8.60;;;;;;;;;;5028974;28;20049;-66
2021/12/30 07:26:16;;;;;;;0.00;0.00;;;;;;;;;;5028076;28;20052;-66
2021/12/30 07:28:42;;;;;;;0.00;0.00;;;;;;;;;;5027144;28;20054;-67
2021/12/30 07:31:08;;;;;;;0.17;0.17;;;;;;;;;;5028315;28;20134;-66
2021/12/30 07:33:34;;;;;;;0.30;0.30;;;;;;;;;;5028682;28;20052;-66
2021/12/30 07:36:00;;;;;;;28.63;9.50;;;;;;;;;;5028569;28;20049;-66
2021/12/30 07:38:26;;;;;;;12.50;6.57;;;;;;;;;;5028037;28;20077;-66
2021/12/30 07:40:52;;;;;;;13.60;6.70;;;;;;;;;;5028775;28;20077;-66
2021/12/30 07:43:18;;;;;;;14.60;7.30;;;;;;;;;;5028357;28;20419;-66
2021/12/30 07:45:44;;;;;;;17.07;7.90;;;;;;;;;;5043687;28;20134;-66
2021/12/30 07:48:10;;;;;;;14.27;6.93;;;;;;;;;;5028734;28;20041;-67
2021/12/30 07:50:36;;;;;;;13.00;6.73;;;;;;;;;;5027439;28;20034;-67
2021/12/30 07:53:03;;;;;;;15.40;7.57;;;;;;;;;;5026560;28;20046;-67
2021/12/30 07:55:29;;;;;;;0.10;0.10;;;;;;;;;;5029064;28;20407;-66
2021/12/30 07:57:57;;;;;;;0.00;0.00;;;;;;;;;;5034088;28;20046;-67
2021/12/30 08:00:24;;;;;;;0.13;0.13;;;;;;;;;;5007653;28;20081;-66
2021/12/30 08:02:50;;;;;;;0.10;0.10;;;;;;;;;;5007604;28;20050;-67
2021/12/30 08:05:18;;;;;;;0.03;0.03;;;;;;;;;;5009125;28;20058;-66
2021/12/30 08:07:48;;;;;;;0.40;0.40;;;;;;;;;;5009475;28;20459;-67
2021/12/30 08:10:15;;;;;;;0.53;0.30;;;;;;;;;;5024090;28;20040;-66
2021/12/30 08:12:42;;;;;;;0.30;0.30;;;;;;;;;;5028825;28;20519;-67
2021/12/30 08:15:09;;;;;;;0.23;0.23;;;;;;;;;;5027252;28;20521;-66
2021/12/30 08:17:36;;;;;;;0.53;0.53;;;;;;;;;;5028852;28;20099;-67
2021/12/30 08:20:03;;;;;;;0.43;0.43;;;;;;;;;;5033478;28;20057;-66
2021/12/30 08:22:29;;;;;;;4.13;0.40;;;;;;;;;;5025760;28;20041;-67
2021/12/30 08:24:55;;;;;;;0.40;0.40;;;;;;;;;;5029702;28;20048;-66
2021/12/30 08:27:22;;;;;;;2.43;0.53;;;;;;;;;;5031169;28;20446;-67
2021/12/30 08:29:47;;;;;;;1.07;1.00;;;;;;;;;;5031876;28;20041;-67
2021/12/30 08:32:16;;;;;;;1.13;0.60;;;;;;;;;;5031463;28;20066;-65
2021/12/30 08:34:43;;;;;;;0.50;0.50;;;;;;;;;;5031451;28;20144;-66
2021/12/30 08:37:09;;;;;;;0.53;0.53;;;;;;;;;;5031221;28;20091;-66
2021/12/30 08:39:36;;;;;;;0.63;0.63;;;;;;;;;;5030901;28;20721;-67
2021/12/30 08:42:03;;;;;;;0.00;0.00;;;;;;;;;;5031317;28;20526;-67
2021/12/30 08:44:29;;;;;;;0.60;0.50;;;;;;;;;;5031046;28;20045;-66
2021/12/30 08:46:55;;;;;;;33.10;19.33;;;;;;;;;;5029666;28;20045;-66
2021/12/30 08:49:22;;;;;;;45.87;19.13;;;;;;;;;;5031461;28;20041;-67
2021/12/30 08:51:48;;;;;;;57.87;22.40;;;;;;;;;;5029175;28;20045;-67
2021/12/30 08:54:14;;;;;;;1.00;0.97;;;;;;;;;;5048770;28;20067;-66
2021/12/30 08:56:40;;;;;;;0.50;0.50;;;;;;;;;;5046539;28;20147;-66
2021/12/30 08:59:06;;;;;;;0.30;0.30;;;;;;;;;;5021598;28;20152;-67
2021/12/30 09:01:32;;;;;;;35.93;19.40;;;;;;;;;;5036563;28;20052;-66
2021/12/30 09:03:58;;;;;;;39.30;20.27;;;;;;;;;;5039122;28;20049;-66
2021/12/30 09:06:24;;;;;;;40.93;22.07;;;;;;;;;;5037580;28;20419;-67
2021/12/30 09:08:51;;;;;;;33.60;21.27;;;;;;;;;;5041031;28;20407;-67
2021/12/30 09:11:17;;;;;;;35.40;21.43;;;;;;;;;;5022791;28;20049;-67
2021/12/30 09:13:43;;;;;;;40.43;23.00;;;;;;;;;;5039080;28;20130;-66
2021/12/30 09:16:09;;;;;;;36.17;22.37;;;;;;;;;;5036856;28;20183;-66
2021/12/30 09:18:35;;;;;;;37.27;23.13;;;;;;;;;;5041754;28;20057;-66
2021/12/30 09:21:01;;;;;;;47.40;23.83;;;;;;;;;;5036456;28;20055;-67
2021/12/30 09:23:27;;;;;;;56.27;26.57;;;;;;;;;;5040141;28;20037;-67
2021/12/30 09:25:55;;;;;;;51.10;25.23;;;;;;;;;;5040643;28;20041;-67
2021/12/30 09:28:21;;;;;;;44.20;23.20;;;;;;;;;;5036648;28;20045;-66
2021/12/30 09:30:47;;;;;;;40.33;23.07;;;;;;;;;;5037606;28;20099;-66
2021/12/30 09:33:16;;;;;;;47.30;24.07;;;;;;;;;;5037119;28;20037;-66
2021/12/30 09:35:44;;;;;;;38.27;21.00;;;;;;;;;;5042235;28;20049;-67
2021/12/30 09:38:10;;;;;;;41.00;24.83;;;;;;;;;;5037768;28;20053;-67
2021/12/30 09:40:36;;;;;;;38.43;21.03;;;;;;;;;;5043487;28;20133;-66
2021/12/30 09:43:04;;;;;;;40.40;19.20;;;;;;;;;;5036927;28;20119;-66
2021/12/30 09:45:31;;;;;;;42.93;21.60;;;;;;;;;;5036496;28;20455;-67
2021/12/30 09:47:58;;;;;;;52.53;22.87;;;;;;;;;;5034967;28;20048;-67
2021/12/30 09:50:29;;;;;;;50.47;22.50;;;;;;;;;;5036520;28;20131;-68
2021/12/30 09:52:59;;;;;;;49.80;23.30;;;;;;;;;;5035009;28;20099;-67
2021/12/30 09:55:26;;;;;;;38.60;21.63;;;;;;;;;;5036146;28;20125;-66
2021/12/30 09:57:52;;;;;;;52.37;24.00;;;;;;;;;;5033405;28;20380;-67
2021/12/30 10:00:19;;;;;;;45.90;22.57;;;;;;;;;;5038795;28;20037;-67
2021/12/30 10:02:45;;;;;;;40.07;21.07;;;;;;;;;;5031835;28;20039;-66
2021/12/30 10:05:13;;;;;;;42.87;19.93;;;;;;;;;;5032266;28;20037;-66
2021/12/30 10:07:41;;;;;;;33.97;18.60;;;;;;;;;;5039642;28;20534;-67
2021/12/30 10:10:27;;;;;;;35.50;17.63;;;;;;;;;;5028592;28;20852;-67
2021/12/30 10:12:53;;;;;;;36.07;16.33;;;;;;;;;;5048521;28;20406;-66
2021/12/30 10:15:24;;;;;;;40.40;16.73;;;;;;;;;;5036943;28;20049;-66
2021/12/30 10:17:57;;;;;;;35.20;16.27;;;;;;;;;;5019329;28;20093;-67
2021/12/30 10:20:25;;;;;;;;;;;;;;;;;;5035717;28;20133;-67
2021/12/30 10:22:52;;;;;;;38.97;15.50;;;;;;;;;;5035747;28;19966;-67
2021/12/30 10:25:25;;;;;;;35.07;15.37;;;;;;;;;;5031692;28;20557;-67
2021/12/30 10:27:51;;;;;;;;;;;;;;;;;;5037124;28;20040;-67
2021/12/30 10:30:31;;;;;;;36.70;14.83;;;;;;;;;;5039932;28;20299;-67
2021/12/30 10:33:10;;;;;;;40.97;16.10;;;;;;;;;;5040614;28;20044;-67
2021/12/30 10:35:36;;;;;;;37.67;15.47;;;;;;;;;;5038524;28;20083;-67
2021/12/30 10:38:04;;;;;;;42.67;17.03;;;;;;;;;;5035844;28;20080;-67
2021/12/30 10:40:31;;;;;;;45.97;15.57;;;;;;;;;;5035166;28;20041;-67
2021/12/30 10:46:16;;;;;;;51.80;18.90;;;;;;;;;;5000371;28;20045;-67
2021/12/30 10:48:46;;;;;;;40.75;17.00;;;;;;;;;;5032123;28;20057;-67
2021/12/30 10:51:14;;;;;;;41.53;16.93;;;;;;;;;;5031985;28;20390;-67
2021/12/30 10:53:40;;;;;;;49.93;17.23;;;;;;;;;;5039657;28;20106;-67
2021/12/30 10:56:19;;;;;;;51.83;14.87;;;;;;;;;;5040341;28;20048;-67
2021/12/30 10:58:45;;;;;;;56.57;15.90;;;;;;;;;;5033974;28;20080;-67
2021/12/30 11:01:15;;;;;;;50.97;17.90;;;;;;;;;;5035777;28;20041;-68
2021/12/30 11:03:42;;;;;;;54.10;16.30;;;;;;;;;;5038707;28;20068;-68
2021/12/30 11:06:12;;;;;;;73.63;23.03;;;;;;;;;;5035013;28;20049;-68
2021/12/30 11:08:38;;;;;;;49.77;15.47;;;;;;;;;;5018376;28;20098;-67
2021/12/30 11:11:22;;;;;;;53.80;15.80;;;;;;;;;;5017622;28;20045;-68
2021/12/30 11:14:07;;;;;;;59.37;17.07;;;;;;;;;;5047110;28;20104;-67
2021/12/30 11:16:52;;;;;;;50.20;13.00;;;;;;;;;;5036341;28;20056;-67
2021/12/30 11:19:18;;;;;;;60.00;15.97;;;;;;;;;;5035609;28;20049;-67
2021/12/30 11:21:47;;;;;;;65.37;17.43;;;;;;;;;;5031266;28;20049;-68
2021/12/30 11:24:13;;;;;;;52.60;14.93;;;;;;;;;;5036714;28;20125;-68
2021/12/30 11:26:39;;;;;;;53.67;15.73;;;;;;;;;;5016715;28;20128;-68
2021/12/30 11:29:06;;;;;;;54.20;14.73;;;;;;;;;;5032460;28;20096;-67
2021/12/30 11:31:32;;;;;;;52.60;14.07;;;;;;;;;;5036755;28;20049;-68
2021/12/30 11:33:59;;;;;;;48.33;14.27;;;;;;;;;;5036516;28;20522;-68
2021/12/30 11:36:28;;;;;;;43.27;12.33;;;;;;;;;;5031478;28;20038;-67
2021/12/30 11:38:55;;;;;;;49.00;13.73;;;;;;;;;;5041428;28;20041;-68
2021/12/30 11:41:22;;;;;;;53.97;14.93;;;;;;;;;;5010810;28;20063;-67
2021/12/30 11:43:49;;;;;;;54.30;14.23;;;;;;;;;;5025724;28;20069;-69
2021/12/30 11:46:33;;;;;;;53.00;14.13;;;;;;;;;;5032408;28;20045;-67
2021/12/30 11:49:01;;;;;;;53.40;16.93;;;;;;;;;;5027446;28;20046;-68
2021/12/30 11:51:41;;;;;;;43.20;14.17;;;;;;;;;;5026369;28;20103;-68
2021/12/30 11:54:26;;;;;;;56.30;15.40;;;;;;;;;;5003679;28;20049;-68
2021/12/30 11:57:10;;;;;;;53.27;14.27;;;;;;;;;;5027258;28;20045;-69
2021/12/30 11:59:39;;;;;;;42.67;14.57;;;;;;;;;;5031017;28;20108;-68
2021/12/30 12:02:24;;;;;;;47.97;14.73;;;;;;;;;;5030376;28;20095;-68
2021/12/30 12:04:50;;;;;;;43.17;11.33;;;;;;;;;;5030234;28;20060;-67
2021/12/30 12:07:16;;;;;;;43.97;12.30;;;;;;;;;;5030176;28;20093;-67
2021/12/30 12:09:43;;;;;;;44.17;12.77;;;;;;;;;;5029053;28;20057;-68
2021/12/30 12:12:13;;;;;;;42.60;12.13;;;;;;;;;;5032328;28;20041;-67
2021/12/30 12:14:41;;;;;;;57.50;12.87;;;;;;;;;;5031451;28;20045;-68
2021/12/30 12:17:08;;;;;;;44.20;12.33;;;;;;;;;;5030951;28;20053;-68
2021/12/30 12:19:42;;;;;;;54.43;14.20;;;;;;;;;;5030226;28;20179;-67
2021/12/30 12:22:17;;;;;;;45.23;12.47;;;;;;;;;;5028897;28;20046;-67
2021/12/30 12:24:43;;;;;;;45.40;11.90;;;;;;;;;;5030610;28;20057;-68
2021/12/30 12:27:30;;;;;;;52.07;12.53;;;;;;;;;;5013863;28;20456;-68
2021/12/30 12:29:57;;;;;;;35.07;12.30;;;;;;;;;;5032688;28;20091;-67
2021/12/30 12:32:29;;;;;;;46.93;11.53;;;;;;;;;;5028930;28;20569;-67
2021/12/30 12:34:56;;;;;;;40.93;12.13;;;;;;;;;;5031128;28;20052;-68
2021/12/30 12:37:28;;;;;;;46.13;11.37;;;;;;;;;;5028909;28;20128;-67
2021/12/30 12:39:58;;;;;;;39.90;11.27;;;;;;;;;;5031753;28;20092;-67
2021/12/30 12:42:43;;;;;;;41.23;11.20;;;;;;;;;;5030901;28;20415;-68
2021/12/30 12:45:15;;;;;;;48.43;13.67;;;;;;;;;;5033354;28;20052;-68
2021/12/30 12:47:41;;;;;;;49.37;13.13;;;;;;;;;;5030627;28;20068;-68
2021/12/30 12:50:08;;;;;;;48.63;11.47;;;;;;;;;;5037799;28;20037;-68
2021/12/30 12:52:44;;;;;;;40.03;12.70;;;;;;;;;;5040671;28;20050;-68
2021/12/30 12:55:18;;;;;;;41.47;11.87;;;;;;;;;;5029358;28;20503;-68
2021/12/30 12:57:44;;;;;;;50.53;11.87;;;;;;;;;;5041522;28;20392;-68
2021/12/30 13:00:11;;;;;;;49.67;12.30;;;;;;;;;;5035585;28;20049;-68
2021/12/30 13:02:37;;;;;;;37.50;11.50;;;;;;;;;;5012013;28;20498;-68
2021/12/30 13:05:21;;;;;;;37.43;11.77;;;;;;;;;;5028525;28;20041;-68
2021/12/30 13:07:50;;;;;;;45.70;11.60;;;;;;;;;;5029010;28;20045;-67
2021/12/30 13:10:19;;;;;;;43.87;12.10;;;;;;;;;;5030553;28;20048;-68
2021/12/30 13:12:45;;;;;;;38.93;11.17;;;;;;;;;;5029829;28;20071;-68
2021/12/30 13:15:16;;;;;;;45.80;14.50;;;;;;;;;;5029905;28;20407;-68
2021/12/30 13:17:43;;;;;;;46.13;13.47;;;;;;;;;;5028179;28;20056;-68
2021/12/30 13:20:10;;;;;;;44.20;11.47;;;;;;;;;;5012337;28;20042;-68
2021/12/30 13:22:37;;;;;;;41.63;12.23;;;;;;;;;;5028238;28;20102;-68
2021/12/30 13:25:04;;;;;;;53.40;12.87;;;;;;;;;;5029968;28;20045;-68
2021/12/30 13:27:37;;;;;;;42.00;11.60;;;;;;;;;;5030654;28;20079;-68
2021/12/30 13:30:14;;;;;;;41.08;11.63;;;;;;;;;;5028571;28;20462;-68
2021/12/30 13:33:03;;;;;;;46.63;12.77;;;;;;;;;;5029732;28;20120;-68
2021/12/30 13:35:34;;;;;;;40.23;11.40;;;;;;;;;;5009265;28;20587;-68
2021/12/30 13:38:01;;;;;;;42.47;11.43;;;;;;;;;;5016741;28;20057;-68
2021/12/30 13:40:33;;;;;;;38.90;13.80;;;;;;;;;;5019369;28;20534;-68
2021/12/30 13:42:59;;;;;;;41.17;10.97;;;;;;;;;;5019252;28;20496;-68
2021/12/30 13:45:27;;;;;;;35.20;10.70;;;;;;;;;;5027138;28;20045;-68
2021/12/30 13:47:53;;;;;;;42.03;12.40;;;;;;;;;;5029676;28;20048;-68
2021/12/30 13:50:19;;;;;;;47.43;11.80;;;;;;;;;;5027410;28;20037;-68
2021/12/30 13:52:46;;;;;;;35.37;11.77;;;;;;;;;;5029579;28;20056;-68
2021/12/30 13:55:17;;;;;;;45.30;11.33;;;;;;;;;;5029185;28;20041;-69
2021/12/30 13:57:46;;;;;;;36.37;12.13;;;;;;;;;;5028820;28;20054;-67
2021/12/30 14:00:14;;;;;;;44.77;13.00;;;;;;;;;;5028053;28;20042;-68
2021/12/30 14:02:40;;;;;;;39.23;11.60;;;;;;;;;;5028822;28;20042;-68
2021/12/30 14:05:07;;;;;;;38.03;10.57;;;;;;;;;;5026850;28;20049;-68
2021/12/30 14:07:34;;;;;;;44.63;12.03;;;;;;;;;;5026502;28;20551;-67
2021/12/30 14:10:00;;;;;;;36.27;12.73;;;;;;;;;;5028904;28;20042;-68
2021/12/30 14:12:26;;;;;;;40.37;12.67;;;;;;;;;;5027852;28;20041;-68
2021/12/30 14:14:52;;;;;;;39.07;12.13;;;;;;;;;;5027370;28;20065;-68
2021/12/30 14:17:18;;;;;;;32.07;11.30;;;;;;;;;;5029018;28;20144;-67
2021/12/30 14:19:49;;;;;;;44.73;13.77;;;;;;;;;;5027704;28;20080;-68
2021/12/30 14:22:16;;;;;;;32.37;10.90;;;;;;;;;;5027156;28;20049;-68
2021/12/30 14:24:42;;;;;;;38.47;12.60;;;;;;;;;;5027867;28;20136;-68
2021/12/30 14:27:17;;;;;;;37.90;11.70;;;;;;;;;;5027125;28;20388;-68